sensor_id;sensor_type;location;lat;lon;timestamp;pressure;altitude;pressure_sealevel;temperature;humidity
49515;BME280;35415;47.870;16.058;2023-03-03T00:01:35;97440.63;;;1.69;75.40
49515;BME280;35415;47.870;16.058;2023-03-03T00:04:02;97450.81;;;1.72;74.99
49515;BME280;35415;47.870;16.058;2023-03-03T00:06:29;97444.50;;;1.73;75.25
49515;BME280;35415;47.870;16.058;2023-03-03T00:08:56;97444.69;;;1.71;75.71
49515;BME280;35415;47.870;16.058;2023-03-03T00:11:23;97447.97;;;1.73;75.29
49515;BME280;35415;47.870;16.058;2023-03-03T00:13:52;97440.44;;;1.70;75.73
49515;BME280;35415;47.870;16.058;2023-03-03T00:16:24;97445.13;;;1.68;75.50
49515;BME280;35415;47.870;16.058;2023-03-03T00:18:52;97440.84;;;1.61;75.67
49515;BME280;35415;47.870;16.058;2023-03-03T00:21:28;97438.19;;;1.61;75.79
49515;BME280;35415;47.870;16.058;2023-03-03T00:24:18;97444.50;;;1.66;75.32
49515;BME280;35415;47.870;16.058;2023-03-03T00:26:46;97438.59;;;1.58;76.20
49515;BME280;35415;47.870;16.058;2023-03-03T00:29:28;97445.75;;;1.57;75.31
49515;BME280;35415;47.870;16.058;2023-03-03T00:32:07;97451.84;;;1.58;75.96
49515;BME280;35415;47.870;16.058;2023-03-03T00:34:39;97443.69;;;1.59;75.75
49515;BME280;35415;47.870;16.058;2023-03-03T00:37:22;97444.94;;;1.57;76.63
49515;BME280;35415;47.870;16.058;2023-03-03T00:39:49;97435.13;;;1.50;77.02
49515;BME280;35415;47.870;16.058;2023-03-03T00:42:17;97437.16;;;1.48;77.58
49515;BME280;35415;47.870;16.058;2023-03-03T00:44:46;97437.59;;;1.45;77.41
49515;BME280;35415;47.870;16.058;2023-03-03T00:47:24;97438.41;;;1.46;77.30
49515;BME280;35415;47.870;16.058;2023-03-03T00:49:53;97438.81;;;1.43;78.29
49515;BME280;35415;47.870;16.058;2023-03-03T00:52:21;97442.06;;;1.45;78.02
49515;BME280;35415;47.870;16.058;2023-03-03T00:54:50;97435.97;;;1.44;77.94
49515;BME280;35415;47.870;16.058;2023-03-03T00:57:17;97429.25;;;1.42;78.71
49515;BME280;35415;47.870;16.058;2023-03-03T00:59:44;97431.06;;;1.41;78.58
49515;BME280;35415;47.870;16.058;2023-03-03T01:02:11;97426.78;;;1.40;78.93
49515;BME280;35415;47.870;16.058;2023-03-03T01:04:40;97421.28;;;1.42;78.67
49515;BME280;35415;47.870;16.058;2023-03-03T01:07:09;97422.09;;;1.42;78.66
49515;BME280;35415;47.870;16.058;2023-03-03T01:09:36;97421.69;;;1.39;78.72
49515;BME280;35415;47.870;16.058;2023-03-03T01:12:03;97414.16;;;1.36;78.96
49515;BME280;35415;47.870;16.058;2023-03-03T01:14:31;97417.22;;;1.39;78.84
49515;BME280;35415;47.870;16.058;2023-03-03T01:16:58;97417.63;;;1.36;79.39
49515;BME280;35415;47.870;16.058;2023-03-03T01:19:25;97421.09;;;1.37;79.39
49515;BME280;35415;47.870;16.058;2023-03-03T01:21:54;97407.03;;;1.36;79.24
49515;BME280;35415;47.870;16.058;2023-03-03T01:24:21;97415.78;;;1.37;79.13
49515;BME280;35415;47.870;16.058;2023-03-03T01:26:48;97402.75;;;1.35;79.64
49515;BME280;35415;47.870;16.058;2023-03-03T01:29:15;97405.19;;;1.37;79.66
49515;BME280;35415;47.870;16.058;2023-03-03T01:31:42;97401.94;;;1.35;79.96
49515;BME280;35415;47.870;16.058;2023-03-03T01:34:09;97399.47;;;1.33;79.69
49515;BME280;35415;47.870;16.058;2023-03-03T01:36:36;97400.50;;;1.32;79.94
49515;BME280;35415;47.870;16.058;2023-03-03T01:39:04;97399.88;;;1.30;80.06
49515;BME280;35415;47.870;16.058;2023-03-03T01:41:31;97390.94;;;1.25;80.16
49515;BME280;35415;47.870;16.058;2023-03-03T01:43:59;97396.84;;;1.27;80.02
49515;BME280;35415;47.870;16.058;2023-03-03T01:46:47;97397.47;;;1.22;79.74
49515;BME280;35415;47.870;16.058;2023-03-03T01:49:20;97371.16;;;1.07;80.27
49515;BME280;35415;47.870;16.058;2023-03-03T01:51:51;97401.53;;;1.18;80.34
49515;BME280;35415;47.870;16.058;2023-03-03T01:54:25;97400.09;;;1.15;81.06
49515;BME280;35415;47.870;16.058;2023-03-03T01:56:56;97399.88;;;1.17;80.48
49515;BME280;35415;47.870;16.058;2023-03-03T01:59:27;97394.19;;;1.13;81.02
49515;BME280;35415;47.870;16.058;2023-03-03T02:01:56;97397.22;;;1.17;80.94
49515;BME280;35415;47.870;16.058;2023-03-03T02:04:23;97406.00;;;1.11;81.66
49515;BME280;35415;47.870;16.058;2023-03-03T02:06:56;97400.72;;;1.11;81.37
49515;BME280;35415;47.870;16.058;2023-03-03T02:09:33;97387.88;;;1.08;81.72
49515;BME280;35415;47.870;16.058;2023-03-03T02:12:06;97385.44;;;1.06;82.04
49515;BME280;35415;47.870;16.058;2023-03-03T02:14:34;97389.31;;;1.04;82.27
49515;BME280;35415;47.870;16.058;2023-03-03T02:17:01;97389.09;;;1.05;82.59
49515;BME280;35415;47.870;16.058;2023-03-03T02:19:34;97386.88;;;1.02;82.61
49515;BME280;35415;47.870;16.058;2023-03-03T02:22:06;97390.53;;;1.01;82.40
49515;BME280;35415;47.870;16.058;2023-03-03T02:24:39;97382.59;;;1.01;82.68
49515;BME280;35415;47.870;16.058;2023-03-03T02:27:10;97378.91;;;1.02;83.16
49515;BME280;35415;47.870;16.058;2023-03-03T02:29:38;97379.94;;;1.01;83.04
49515;BME280;35415;47.870;16.058;2023-03-03T02:32:05;97383.78;;;0.99;82.90
49515;BME280;35415;47.870;16.058;2023-03-03T02:34:44;97385.81;;;0.97;82.95
49515;BME280;35415;47.870;16.058;2023-03-03T02:37:12;97383.38;;;0.95;83.32
49515;BME280;35415;47.870;16.058;2023-03-03T02:39:39;97384.00;;;0.90;83.27
49515;BME280;35415;47.870;16.058;2023-03-03T02:42:11;97382.59;;;0.88;83.53
49515;BME280;35415;47.870;16.058;2023-03-03T02:44:41;97386.84;;;0.89;83.88
49515;BME280;35415;47.870;16.058;2023-03-03T02:47:08;97360.56;;;0.74;83.42
49515;BME280;35415;47.870;16.058;2023-03-03T02:49:36;97382.38;;;0.89;83.45
49515;BME280;35415;47.870;16.058;2023-03-03T02:52:05;97381.34;;;0.90;83.54
49515;BME280;35415;47.870;16.058;2023-03-03T02:54:35;97376.47;;;0.87;83.94
49515;BME280;35415;47.870;16.058;2023-03-03T02:57:03;97380.13;;;0.86;84.10
49515;BME280;35415;47.870;16.058;2023-03-03T02:59:31;97374.84;;;0.86;83.84
49515;BME280;35415;47.870;16.058;2023-03-03T03:01:59;97375.22;;;0.83;84.39
49515;BME280;35415;47.870;16.058;2023-03-03T03:04:26;97373.00;;;0.87;83.58
49515;BME280;35415;47.870;16.058;2023-03-03T03:06:54;97373.81;;;0.87;84.41
49515;BME280;35415;47.870;16.058;2023-03-03T03:09:22;97356.28;;;0.73;83.98
49515;BME280;35415;47.870;16.058;2023-03-03T03:11:51;97378.69;;;0.84;84.48
49515;BME280;35415;47.870;16.058;2023-03-03T03:14:18;97343.84;;;0.67;84.59
49515;BME280;35415;47.870;16.058;2023-03-03T03:16:46;97368.94;;;0.84;84.33
49515;BME280;35415;47.870;16.058;2023-03-03T03:19:14;97356.09;;;0.81;84.32
49515;BME280;35415;47.870;16.058;2023-03-03T03:21:41;97366.09;;;0.86;84.20
49515;BME280;35415;47.870;16.058;2023-03-03T03:24:08;97367.09;;;0.85;84.35
49515;BME280;35415;47.870;16.058;2023-03-03T03:26:35;97360.34;;;0.82;84.68
49515;BME280;35415;47.870;16.058;2023-03-03T03:29:02;97361.00;;;0.84;85.03
49515;BME280;35415;47.870;16.058;2023-03-03T03:31:28;97364.22;;;0.80;84.99
49515;BME280;35415;47.870;16.058;2023-03-03T03:33:58;97364.22;;;0.80;84.97
49515;BME280;35415;47.870;16.058;2023-03-03T03:36:26;97367.91;;;0.79;85.37
49515;BME280;35415;47.870;16.058;2023-03-03T03:38:53;97373.81;;;0.81;85.42
49515;BME280;35415;47.870;16.058;2023-03-03T03:41:20;97373.00;;;0.80;85.57
49515;BME280;35415;47.870;16.058;2023-03-03T03:43:47;97371.34;;;0.79;85.80
49515;BME280;35415;47.870;16.058;2023-03-03T03:46:14;97349.34;;;0.66;85.10
49515;BME280;35415;47.870;16.058;2023-03-03T03:48:41;97379.31;;;0.79;85.15
49515;BME280;35415;47.870;16.058;2023-03-03T03:51:11;97374.00;;;0.79;85.12
49515;BME280;35415;47.870;16.058;2023-03-03T03:53:38;97376.47;;;0.74;85.76
49515;BME280;35415;47.870;16.058;2023-03-03T03:56:06;97374.81;;;0.73;85.49
49515;BME280;35415;47.870;16.058;2023-03-03T03:58:33;97359.94;;;0.66;85.78
49515;BME280;35415;47.870;16.058;2023-03-03T04:01:02;97366.28;;;0.71;85.69
49515;BME280;35415;47.870;16.058;2023-03-03T04:03:29;97368.94;;;0.71;85.98
49515;BME280;35415;47.870;16.058;2023-03-03T04:05:56;97367.28;;;0.70;86.14
49515;BME280;35415;47.870;16.058;2023-03-03T04:08:25;97369.94;;;0.70;86.06
49515;BME280;35415;47.870;16.058;2023-03-03T04:10:52;97373.59;;;0.69;86.10
49515;BME280;35415;47.870;16.058;2023-03-03T04:13:19;97371.78;;;0.70;86.16
49515;BME280;35415;47.870;16.058;2023-03-03T04:15:46;97366.06;;;0.73;85.78
49515;BME280;35415;47.870;16.058;2023-03-03T04:18:13;97367.09;;;0.72;86.30
49515;BME280;35415;47.870;16.058;2023-03-03T04:20:41;97366.28;;;0.71;86.41
49515;BME280;35415;47.870;16.058;2023-03-03T04:23:08;97372.59;;;0.70;86.25
49515;BME280;35415;47.870;16.058;2023-03-03T04:25:37;97364.25;;;0.73;86.18
49515;BME280;35415;47.870;16.058;2023-03-03T04:28:04;97365.25;;;0.72;86.37
49515;BME280;35415;47.870;16.058;2023-03-03T04:30:31;97360.56;;;0.74;86.61
49515;BME280;35415;47.870;16.058;2023-03-03T04:32:58;97366.28;;;0.71;86.63
49515;BME280;35415;47.870;16.058;2023-03-03T04:35:25;97370.75;;;0.71;86.47
49515;BME280;35415;47.870;16.058;2023-03-03T04:37:52;97369.50;;;0.67;86.52
49515;BME280;35415;47.870;16.058;2023-03-03T04:40:19;97371.13;;;0.61;86.65
49515;BME280;35415;47.870;16.058;2023-03-03T04:42:47;97363.00;;;0.56;86.91
49515;BME280;35415;47.870;16.058;2023-03-03T04:45:15;97366.47;;;0.56;86.86
49515;BME280;35415;47.870;16.058;2023-03-03T04:47:42;97368.69;;;0.59;87.68
49515;BME280;35415;47.870;16.058;2023-03-03T04:50:10;97366.06;;;0.53;87.75
49515;BME280;35415;47.870;16.058;2023-03-03T04:52:38;97369.72;;;0.58;87.51
49515;BME280;35415;47.870;16.058;2023-03-03T04:55:06;97376.44;;;0.54;87.69
49515;BME280;35415;47.870;16.058;2023-03-03T04:57:36;97382.13;;;0.51;87.56
49515;BME280;35415;47.870;16.058;2023-03-03T05:00:08;97383.75;;;0.52;88.02
49515;BME280;35415;47.870;16.058;2023-03-03T05:02:38;97383.53;;;0.47;88.18
49515;BME280;35415;47.870;16.058;2023-03-03T05:05:05;97386.19;;;0.47;88.64
49515;BME280;35415;47.870;16.058;2023-03-03T05:07:36;97393.28;;;0.40;88.62
49515;BME280;35415;47.870;16.058;2023-03-03T05:10:05;97389.84;;;0.40;88.38
49515;BME280;35415;47.870;16.058;2023-03-03T05:12:33;97353.13;;;0.10;88.20
49515;BME280;35415;47.870;16.058;2023-03-03T05:15:02;97393.25;;;0.34;88.13
49515;BME280;35415;47.870;16.058;2023-03-03T05:17:31;97391.00;;;0.30;88.74
49515;BME280;35415;47.870;16.058;2023-03-03T05:19:58;97382.88;;;0.25;88.95
49515;BME280;35415;47.870;16.058;2023-03-03T05:22:26;97397.13;;;0.24;89.24
49515;BME280;35415;47.870;16.058;2023-03-03T05:24:52;97394.06;;;0.21;89.26
49515;BME280;35415;47.870;16.058;2023-03-03T05:27:20;97393.25;;;0.20;89.08
49515;BME280;35415;47.870;16.058;2023-03-03T05:29:46;97398.50;;;0.14;89.46
49515;BME280;35415;47.870;16.058;2023-03-03T05:32:14;97406.44;;;0.14;89.26
49515;BME280;35415;47.870;16.058;2023-03-03T05:34:42;97398.69;;;0.12;89.22
49515;BME280;35415;47.870;16.058;2023-03-03T05:37:10;97401.94;;;0.08;89.34
49515;BME280;35415;47.870;16.058;2023-03-03T05:39:38;97369.31;;;-0.13;89.96
49515;BME280;35415;47.870;16.058;2023-03-03T05:42:05;97355.16;;;-0.40;89.86
49515;BME280;35415;47.870;16.058;2023-03-03T05:44:32;97411.69;;;0.01;90.58
49515;BME280;35415;47.870;16.058;2023-03-03T05:47:00;97404.31;;;-0.04;91.46
49515;BME280;35415;47.870;16.058;2023-03-03T05:49:27;97346.00;;;-0.44;91.05
49515;BME280;35415;47.870;16.058;2023-03-03T05:51:55;97418.34;;;-0.04;91.84
49515;BME280;35415;47.870;16.058;2023-03-03T05:54:24;97405.13;;;-0.10;91.98
49515;BME280;35415;47.870;16.058;2023-03-03T05:56:51;97423.03;;;-0.06;92.19
49515;BME280;35415;47.870;16.058;2023-03-03T05:59:18;97428.72;;;-0.09;92.09
49515;BME280;35415;47.870;16.058;2023-03-03T06:01:45;97424.25;;;-0.08;92.70
49515;BME280;35415;47.870;16.058;2023-03-03T06:04:12;97423.63;;;-0.10;93.21
49515;BME280;35415;47.870;16.058;2023-03-03T06:06:39;97422.19;;;-0.13;92.86
49515;BME280;35415;47.870;16.058;2023-03-03T06:09:08;97423.59;;;-0.17;93.57
49515;BME280;35415;47.870;16.058;2023-03-03T06:11:35;97418.88;;;-0.21;93.63
49515;BME280;35415;47.870;16.058;2023-03-03T06:14:02;97441.53;;;-0.12;93.82
49515;BME280;35415;47.870;16.058;2023-03-03T06:16:29;97432.78;;;-0.13;94.03
49515;BME280;35415;47.870;16.058;2023-03-03T06:18:55;97438.06;;;-0.13;93.90
49515;BME280;35415;47.870;16.058;2023-03-03T06:21:25;97395.41;;;-0.38;94.22
49515;BME280;35415;47.870;16.058;2023-03-03T06:23:52;97439.09;;;-0.07;94.63
49515;BME280;35415;47.870;16.058;2023-03-03T06:26:21;97439.09;;;-0.07;94.50
49515;BME280;35415;47.870;16.058;2023-03-03T06:28:48;97459.22;;;-0.06;94.63
49515;BME280;35415;47.870;16.058;2023-03-03T06:31:18;97449.28;;;-0.04;94.83
49515;BME280;35415;47.870;16.058;2023-03-03T06:33:45;97447.25;;;-0.02;94.92
49515;BME280;35415;47.870;16.058;2023-03-03T06:36:12;97456.81;;;-0.01;95.00
49515;BME280;35415;47.870;16.058;2023-03-03T06:38:39;97459.50;;;0.06;94.71
49515;BME280;35415;47.870;16.058;2023-03-03T06:41:06;97451.78;;;0.04;94.83
49515;BME280;35415;47.870;16.058;2023-03-03T06:43:35;97457.28;;;0.09;94.67
49515;BME280;35415;47.870;16.058;2023-03-03T06:46:03;97456.28;;;0.17;95.00
49515;BME280;35415;47.870;16.058;2023-03-03T06:48:31;97449.59;;;0.21;95.18
49515;BME280;35415;47.870;16.058;2023-03-03T06:51:01;97460.22;;;0.27;95.31
49515;BME280;35415;47.870;16.058;2023-03-03T06:53:31;97441.69;;;0.27;95.30
49515;BME280;35415;47.870;16.058;2023-03-03T06:55:59;97459.66;;;0.39;95.33
49515;BME280;35415;47.870;16.058;2023-03-03T06:58:27;97461.50;;;0.45;95.08
49515;BME280;35415;47.870;16.058;2023-03-03T07:00:58;97447.84;;;0.41;94.77
49515;BME280;35415;47.870;16.058;2023-03-03T07:03:31;97465.63;;;0.60;94.11
49515;BME280;35415;47.870;16.058;2023-03-03T07:05:58;97467.69;;;0.72;93.43
49515;BME280;35415;47.870;16.058;2023-03-03T07:08:30;97465.66;;;0.74;93.72
49515;BME280;35415;47.870;16.058;2023-03-03T07:11:01;97465.25;;;0.77;93.88
49515;BME280;35415;47.870;16.058;2023-03-03T07:13:36;97463.41;;;0.84;93.73
49515;BME280;35415;47.870;16.058;2023-03-03T07:16:10;97457.34;;;0.90;93.96
49515;BME280;35415;47.870;16.058;2023-03-03T07:18:43;97462.44;;;0.98;94.03
49515;BME280;35415;47.870;16.058;2023-03-03T07:21:17;97470.41;;;1.05;93.73
49515;BME280;35415;47.870;16.058;2023-03-03T07:23:46;97455.94;;;1.07;93.64
49515;BME280;35415;47.870;16.058;2023-03-03T07:26:17;97460.44;;;1.20;93.78
49515;BME280;35415;47.870;16.058;2023-03-03T07:28:52;97474.06;;;1.30;93.24
49515;BME280;35415;47.870;16.058;2023-03-03T07:31:26;97464.72;;;1.41;92.92
49515;BME280;35415;47.870;16.058;2023-03-03T07:33:56;97468.97;;;1.48;92.81
49515;BME280;35415;47.870;16.058;2023-03-03T07:36:30;97458.16;;;1.50;92.59
49515;BME280;35415;47.870;16.058;2023-03-03T07:39:03;97466.50;;;1.67;92.74
49515;BME280;35415;47.870;16.058;2023-03-03T07:41:38;97457.94;;;1.78;92.13
49515;BME280;35415;47.870;16.058;2023-03-03T07:44:09;97454.28;;;1.86;92.14
49515;BME280;35415;47.870;16.058;2023-03-03T07:46:42;97459.31;;;2.00;91.93
49515;BME280;35415;47.870;16.058;2023-03-03T07:49:20;97463.97;;;2.11;91.38
49515;BME280;35415;47.870;16.058;2023-03-03T07:51:52;97446.00;;;2.14;91.25
49515;BME280;35415;47.870;16.058;2023-03-03T07:54:30;97433.13;;;2.17;90.69
49515;BME280;35415;47.870;16.058;2023-03-03T07:57:11;97452.03;;;2.40;90.53
49515;BME280;35415;47.870;16.058;2023-03-03T07:59:45;97458.72;;;2.56;90.08
49515;BME280;35415;47.870;16.058;2023-03-03T08:02:32;97433.00;;;2.50;89.73
49515;BME280;35415;47.870;16.058;2023-03-03T08:05:22;97463.06;;;2.82;89.77
49515;BME280;35415;47.870;16.058;2023-03-03T08:07:53;97457.25;;;2.98;89.12
49515;BME280;35415;47.870;16.058;2023-03-03T08:10:34;97460.84;;;3.11;88.86
49515;BME280;35415;47.870;16.058;2023-03-03T08:13:10;97446.75;;;3.10;88.52
49515;BME280;35415;47.870;16.058;2023-03-03T08:15:44;97449.41;;;3.35;88.32
49515;BME280;35415;47.870;16.058;2023-03-03T08:18:21;97431.81;;;3.34;88.20
49515;BME280;35415;47.870;16.058;2023-03-03T08:20:50;97449.41;;;3.60;87.23
49515;BME280;35415;47.870;16.058;2023-03-03T08:23:18;97441.53;;;3.72;87.38
49515;BME280;35415;47.870;16.058;2023-03-03T08:25:47;97439.75;;;3.84;87.07
49515;BME280;35415;47.870;16.058;2023-03-03T08:28:15;97434.16;;;3.92;86.52
49515;BME280;35415;47.870;16.058;2023-03-03T08:30:42;97452.34;;;4.13;86.56
49515;BME280;35415;47.870;16.058;2023-03-03T08:33:10;97447.56;;;4.22;85.63
49515;BME280;35415;47.870;16.058;2023-03-03T08:35:39;97464.34;;;4.41;85.91
49515;BME280;35415;47.870;16.058;2023-03-03T08:38:06;97432.22;;;4.36;85.97
49515;BME280;35415;47.870;16.058;2023-03-03T08:40:34;97424.88;;;4.49;85.22
49515;BME280;35415;47.870;16.058;2023-03-03T08:43:01;97429.59;;;4.66;84.94
49515;BME280;35415;47.870;16.058;2023-03-03T08:45:28;97438.56;;;4.83;84.78
49515;BME280;35415;47.870;16.058;2023-03-03T08:48:04;97445.94;;;4.99;84.18
49515;BME280;35415;47.870;16.058;2023-03-03T08:50:32;97465.25;;;5.25;83.59
49515;BME280;35415;47.870;16.058;2023-03-03T08:53:00;97462.38;;;5.38;83.65
49515;BME280;35415;47.870;16.058;2023-03-03T08:55:28;97453.09;;;5.52;83.36
49515;BME280;35415;47.870;16.058;2023-03-03T08:57:55;97449.75;;;5.68;83.43
49515;BME280;35415;47.870;16.058;2023-03-03T09:00:23;97460.78;;;5.84;82.82
49515;BME280;35415;47.870;16.058;2023-03-03T09:02:51;97450.47;;;5.99;81.82
49515;BME280;35415;47.870;16.058;2023-03-03T09:05:20;97440.03;;;6.09;80.98
49515;BME280;35415;47.870;16.058;2023-03-03T09:07:47;97448.47;;;6.29;80.84
49515;BME280;35415;47.870;16.058;2023-03-03T09:10:19;97452.59;;;6.49;80.23
49515;BME280;35415;47.870;16.058;2023-03-03T09:12:47;97446.50;;;6.65;77.36
49515;BME280;35415;47.870;16.058;2023-03-03T09:15:20;97447.38;;;6.82;78.15
49515;BME280;35415;47.870;16.058;2023-03-03T09:17:48;97440.47;;;6.98;78.29
49515;BME280;35415;47.870;16.058;2023-03-03T09:20:32;97443.16;;;7.15;78.37
49515;BME280;35415;47.870;16.058;2023-03-03T09:23:23;97455.59;;;7.38;76.89
49515;BME280;35415;47.870;16.058;2023-03-03T09:25:53;97446.94;;;7.47;74.93
49515;BME280;35415;47.870;16.058;2023-03-03T09:28:23;97449.66;;;7.69;74.39
49515;BME280;35415;47.870;16.058;2023-03-03T09:30:52;97430.78;;;7.76;74.23
49515;BME280;35415;47.870;16.058;2023-03-03T09:33:25;97429.19;;;7.97;74.68
49515;BME280;35415;47.870;16.058;2023-03-03T09:35:56;97452.84;;;8.22;73.07
49515;BME280;35415;47.870;16.058;2023-03-03T09:38:27;97452.66;;;8.45;71.87
49515;BME280;35415;47.870;16.058;2023-03-03T09:44:00;97438.00;;;8.74;71.95
49515;BME280;35415;47.870;16.058;2023-03-03T09:46:36;97445.75;;;8.98;69.06
49515;BME280;35415;47.870;16.058;2023-03-03T09:49:16;97435.94;;;9.09;69.91
49515;BME280;35415;47.870;16.058;2023-03-03T09:51:59;97426.91;;;9.20;67.67
49515;BME280;35415;47.870;16.058;2023-03-03T09:54:50;97431.09;;;9.38;68.36
49515;BME280;35415;47.870;16.058;2023-03-03T09:57:24;97452.56;;;9.70;67.62
49515;BME280;35415;47.870;16.058;2023-03-03T10:00:24;97455.09;;;9.86;68.58
49515;BME280;35415;47.870;16.058;2023-03-03T10:03:05;97449.03;;;10.01;66.20
49515;BME280;35415;47.870;16.058;2023-03-03T10:05:42;97427.53;;;10.01;65.84
49515;BME280;35415;47.870;16.058;2023-03-03T10:08:29;97445.22;;;10.29;64.76
49515;BME280;35415;47.870;16.058;2023-03-03T10:11:04;97450.66;;;10.44;63.03
49515;BME280;35415;47.870;16.058;2023-03-03T10:13:57;97443.16;;;10.57;60.23
49515;BME280;35415;47.870;16.058;2023-03-03T10:16:50;97447.81;;;10.71;58.45
49515;BME280;35415;47.870;16.058;2023-03-03T10:19:35;97454.56;;;10.84;54.94
49515;BME280;35415;47.870;16.058;2023-03-03T10:22:15;97460.81;;;10.95;52.67
49515;BME280;35415;47.870;16.058;2023-03-03T10:24:51;97445.16;;;10.87;49.64
49515;BME280;35415;47.870;16.058;2023-03-03T10:27:43;97437.94;;;10.97;49.62
49515;BME280;35415;47.870;16.058;2023-03-03T10:30:20;97461.66;;;11.21;49.71
49515;BME280;35415;47.870;16.058;2023-03-03T10:32:56;97461.97;;;11.29;49.13
49515;BME280;35415;47.870;16.058;2023-03-03T10:35:36;97456.31;;;11.36;48.69
49515;BME280;35415;47.870;16.058;2023-03-03T10:41:09;97412.41;;;11.30;47.78
49515;BME280;35415;47.870;16.058;2023-03-03T10:47:01;97456.06;;;11.78;48.30
49515;BME280;35415;47.870;16.058;2023-03-03T10:49:46;97424.00;;;11.71;46.88
49515;BME280;35415;47.870;16.058;2023-03-03T10:52:30;97456.34;;;11.97;47.69
49515;BME280;35415;47.870;16.058;2023-03-03T10:58:28;97429.91;;;12.04;46.49
49515;BME280;35415;47.870;16.058;2023-03-03T11:01:06;97433.91;;;12.22;44.91
49515;BME280;35415;47.870;16.058;2023-03-03T11:04:14;97443.88;;;12.31;46.41
49515;BME280;35415;47.870;16.058;2023-03-03T11:06:54;97432.81;;;12.33;42.77
49515;BME280;35415;47.870;16.058;2023-03-03T11:12:26;97430.63;;;12.45;42.24
49515;BME280;35415;47.870;16.058;2023-03-03T11:15:12;97419.56;;;12.42;41.92
49515;BME280;35415;47.870;16.058;2023-03-03T11:17:56;97427.88;;;12.55;43.48
49515;BME280;35415;47.870;16.058;2023-03-03T11:20:36;97411.41;;;12.62;43.59
49515;BME280;35415;47.870;16.058;2023-03-03T11:23:16;97407.59;;;12.68;43.21
49515;BME280;35415;47.870;16.058;2023-03-03T11:25:50;97396.22;;;12.71;39.97
49515;BME280;35415;47.870;16.058;2023-03-03T11:28:30;97397.03;;;12.77;40.74
49515;BME280;35415;47.870;16.058;2023-03-03T11:31:15;97392.16;;;12.74;40.57
49515;BME280;35415;47.870;16.058;2023-03-03T11:33:51;97393.78;;;12.80;39.90
49515;BME280;35415;47.870;16.058;2023-03-03T11:36:27;97377.88;;;12.73;40.91
49515;BME280;35415;47.870;16.058;2023-03-03T11:38:58;97366.78;;;12.75;39.15
49515;BME280;35415;47.870;16.058;2023-03-03T11:41:34;97387.53;;;12.84;37.86
49515;BME280;35415;47.870;16.058;2023-03-03T11:44:12;97382.13;;;12.84;38.06
49515;BME280;35415;47.870;16.058;2023-03-03T11:46:45;97388.91;;;12.82;37.80
49515;BME280;35415;47.870;16.058;2023-03-03T11:49:19;97365.44;;;12.77;39.37
49515;BME280;35415;47.870;16.058;2023-03-03T11:52:03;97347.66;;;12.71;39.84
49515;BME280;35415;47.870;16.058;2023-03-03T11:54:39;97377.22;;;12.91;38.45
49515;BME280;35415;47.870;16.058;2023-03-03T11:57:16;97360.00;;;12.82;38.65
49515;BME280;35415;47.870;16.058;2023-03-03T12:00:00;97384.19;;;13.03;39.44
49515;BME280;35415;47.870;16.058;2023-03-03T12:05:26;97376.81;;;13.13;39.39
49515;BME280;35415;47.870;16.058;2023-03-03T12:08:06;97355.53;;;13.07;39.08
49515;BME280;35415;47.870;16.058;2023-03-03T12:10:41;97374.59;;;13.25;39.67
49515;BME280;35415;47.870;16.058;2023-03-03T12:13:18;97358.94;;;13.22;39.64
49515;BME280;35415;47.870;16.058;2023-03-03T12:15:53;97371.97;;;13.49;40.34
49515;BME280;35415;47.870;16.058;2023-03-03T12:18:35;97346.50;;;13.55;39.58
49515;BME280;35415;47.870;16.058;2023-03-03T12:21:26;97365.56;;;13.69;37.70
49515;BME280;35415;47.870;16.058;2023-03-03T12:24:31;97362.00;;;13.74;38.10
49515;BME280;35415;47.870;16.058;2023-03-03T12:27:18;97314.75;;;13.42;37.42
49515;BME280;35415;47.870;16.058;2023-03-03T12:30:08;97304.63;;;13.29;37.06
49515;BME280;35415;47.870;16.058;2023-03-03T12:33:06;97293.53;;;13.25;37.66
49515;BME280;35415;47.870;16.058;2023-03-03T12:36:49;97331.16;;;13.51;37.52
49515;BME280;35415;47.870;16.058;2023-03-03T12:39:33;97312.44;;;13.31;37.10
49515;BME280;35415;47.870;16.058;2023-03-03T12:42:11;97283.09;;;13.19;37.25
49515;BME280;35415;47.870;16.058;2023-03-03T12:44:49;97277.13;;;13.17;37.66
49515;BME280;35415;47.870;16.058;2023-03-03T12:47:35;97344.91;;;13.54;37.51
49515;BME280;35415;47.870;16.058;2023-03-03T12:50:28;97274.69;;;13.20;37.81
49515;BME280;35415;47.870;16.058;2023-03-03T12:53:12;97324.94;;;13.50;37.43
49515;BME280;35415;47.870;16.058;2023-03-03T12:56:03;97321.09;;;13.57;38.35
49515;BME280;35415;47.870;16.058;2023-03-03T12:58:48;97306.78;;;13.56;38.34
49515;BME280;35415;47.870;16.058;2023-03-03T13:01:51;97257.34;;;13.27;37.94
49515;BME280;35415;47.870;16.058;2023-03-03T13:04:35;97323.66;;;13.72;36.51
49515;BME280;35415;47.870;16.058;2023-03-03T13:08:00;97270.72;;;13.42;36.72
49515;BME280;35415;47.870;16.058;2023-03-03T13:10:36;97297.78;;;13.66;37.45
49515;BME280;35415;47.870;16.058;2023-03-03T13:13:30;97268.44;;;13.54;37.82
49515;BME280;35415;47.870;16.058;2023-03-03T13:16:08;97306.47;;;13.87;36.86
49515;BME280;35415;47.870;16.058;2023-03-03T13:18:59;97281.91;;;13.83;36.81
49515;BME280;35415;47.870;16.058;2023-03-03T13:21:52;97302.78;;;14.01;36.12
49515;BME280;35415;47.870;16.058;2023-03-03T13:24:41;97325.56;;;14.19;35.05
49515;BME280;35415;47.870;16.058;2023-03-03T13:27:40;97238.13;;;13.81;36.43
49515;BME280;35415;47.870;16.058;2023-03-03T13:30:21;97289.16;;;14.11;36.84
49515;BME280;35415;47.870;16.058;2023-03-03T13:32:55;97264.19;;;13.96;36.51
49515;BME280;35415;47.870;16.058;2023-03-03T13:35:40;97279.88;;;14.18;36.35
49515;BME280;35415;47.870;16.058;2023-03-03T13:38:13;97237.50;;;14.08;35.78
49515;BME280;35415;47.870;16.058;2023-03-03T13:41:23;97294.66;;;14.49;35.92
49515;BME280;35415;47.870;16.058;2023-03-03T13:44:39;97309.78;;;14.50;35.55
49515;BME280;35415;47.870;16.058;2023-03-03T13:47:22;97299.97;;;14.54;36.22
49515;BME280;35415;47.870;16.058;2023-03-03T13:50:02;97295.06;;;14.56;35.19